Stations météo

réclame
Mon MeteoGroup
Scatsta, Grande-Bretagne (3006): Température de l'air & dewpoint: 11.11.2019 21:00:00 - 17.11.2019 21:00:00 (GMT)Scatsta, Grande-Bretagne (3006): Vitesse du vent: 11.11.2019 21:00:00 - 17.11.2019 21:00:00 (GMT)Scatsta, Grande-Bretagne (3006): Direction du vent: 11.11.2019 21:00:00 - 17.11.2019 21:00:00 (GMT)Scatsta, Grande-Bretagne (3006): visibility: 11.11.2019 21:00:00 - 17.11.2019 21:00:00 (GMT)
Date & Time tt [°C] td [°C] ff [km/h] ff [knt] dd vv [km]
17.11.2019 21:00:00 1,0 0,0 8 4 S 10
17.11.2019 20:00:00 3,0 1,0 5 3 - 10
17.11.2019 19:00:00 5,0 1,0 9 5 SSW 10
17.11.2019 18:00:00 3,0 1,0 4 2 - 10
17.11.2019 17:00:00 5,0 2,0 8 4 E 10
17.11.2019 16:00:00 3,0 2,0 8 4 SW 10
17.11.2019 15:00:00 5,0 3,0 8 4 WSW 10
17.11.2019 14:00:00 5,0 4,0 8 4 WSW 10
17.11.2019 13:00:00 6,0 3,0 11 6 SW 10
17.11.2019 12:00:00 6,0 4,0 4 2 - 10
17.11.2019 11:00:00 5,0 4,0 4 2 SSW 10
17.11.2019 10:00:00 5,0 4,0 9 5 W 10
17.11.2019 09:00:00 5,0 3,0 9 5 WNW 10
17.11.2019 08:00:00 4,0 3,0 4 2 - 10
17.11.2019 07:00:00 3,0 2,0 8 4 SW 10
17.11.2019 06:00:00 4,0 2,0 8 4 WSW 10
17.11.2019 05:00:00 5,0 3,0 13 7 SSW 10
17.11.2019 04:00:00 4,0 3,0 15 8 WSW 10
17.11.2019 03:00:00 4,0 3,0 11 6 WSW 10
17.11.2019 02:00:00 4,0 2,0 9 5 SW 10
17.11.2019 01:00:00 4,0 2,0 13 7 SSW 10
17.11.2019 00:00:00 3,0 1,0 8 4 WNW 10
16.11.2019 23:00:00 2,0 1,0 5 3 - 10
16.11.2019 22:00:00 0,0 -1,0 4 2 - 10
16.11.2019 21:00:00 1,0 0,0 5 3 - 10
16.11.2019 20:00:00 1,0 -1,0 4 2 - 10
16.11.2019 19:00:00 2,0 1,0 8 4 WSW 10
16.11.2019 18:00:00 3,0 1,0 5 3 - 10
16.11.2019 17:00:00 2,0 1,0 4 2 - 10
16.11.2019 16:00:00 3,0 2,0 13 7 S 10
16.11.2019 15:00:00 4,0 3,0 13 7 S 10
16.11.2019 14:00:00 6,0 4,0 4 2 - 10
16.11.2019 13:00:00 6,0 4,0 9 5 SSE 10
16.11.2019 12:00:00 5,0 4,0 8 4 S 10
16.11.2019 11:00:00 5,0 3,0 15 8 SSE 10
16.11.2019 10:00:00 2,0 2,0 5 3 - 10
16.11.2019 09:00:00 1,0 0,0 5 3 - 10
16.11.2019 08:00:00 0,0 0,0 4 2 - 10
16.11.2019 07:00:00 1,0 1,0 4 2 - 10
16.11.2019 06:00:00 2,0 2,0 2 1 - 10
16.11.2019 05:00:00 0,0 -1,0 0 0 N 10
16.11.2019 04:00:00 1,0 1,0 2 1 - 10
16.11.2019 03:00:00 3,0 3,0 5 3 S 10
16.11.2019 02:00:00 4,0 3,0 2 1 - 10
16.11.2019 01:00:00 3,0 1,0 0 0 N 10
16.11.2019 00:00:00 3,0 2,0 5 3 NE 10
15.11.2019 23:00:00 3,0 2,0 13 7 SSE 8
15.11.2019 22:00:00 0,0 0,0 4 2 SE 10
15.11.2019 21:00:00 1,0 0,0 0 0 N 10
15.11.2019 20:00:00 1,0 0,0 2 1 - 10
15.11.2019 19:00:00 -1,0 -2,0 2 1 WSW 10
15.11.2019 18:00:00 0,0 -1,0 0 0 N 10
15.11.2019 17:00:00 0,0 -1,0 0 0 N 10
15.11.2019 16:00:00 2,0 1,0 0 0 N 10
15.11.2019 15:00:00 5,0 3,0 11 6 E 10
15.11.2019 14:00:00 6,0 4,0 11 6 NNE 10
15.11.2019 13:00:00 5,0 3,0 0 0 N 10
15.11.2019 12:00:00 5,0 2,0 5 3 - 10
15.11.2019 11:00:00 3,0 2,0 4 2 - 10
15.11.2019 10:00:00 1,0 0,0 4 2 SE 10
15.11.2019 09:00:00 1,0 0,0 4 2 - 10
15.11.2019 08:00:00 3,0 1,0 4 2 - 10
15.11.2019 07:00:00 4,0 3,0 11 6 NE 10
15.11.2019 06:00:00 3,0 1,0 4 2 - 10
15.11.2019 05:00:00 2,0 1,0 5 3 - 10
15.11.2019 04:00:00 2,0 1,0 5 3 - 10
15.11.2019 03:00:00 2,0 0,0 4 2 - 10
15.11.2019 02:00:00 3,0 1,0 5 3 - 10
15.11.2019 01:00:00 2,0 1,0 8 4 E 10
15.11.2019 00:00:00 4,0 3,0 18 10 NE 10
14.11.2019 23:00:00 2,0 1,0 4 2 - 10
14.11.2019 22:00:00 5,0 3,0 18 10 NNE 10
14.11.2019 21:00:00 5,0 3,0 18 10 NE 10
14.11.2019 20:00:00 5,0 3,0 21 11 NE 10
14.11.2019 19:00:00 5,0 3,0 22 12 N 10
14.11.2019 18:00:00 5,0 4,0 24 13 N 9
14.11.2019 17:00:00 5,0 3,0 29 16 NNW 10
14.11.2019 16:00:00 6,0 3,0 21 11 N 8
14.11.2019 15:00:00 4,0 3,0 18 10 NNE 6
14.11.2019 14:00:00 4,0 3,0 21 11 NNE 9
14.11.2019 13:00:00 5,0 3,0 18 10 NNW 10
14.11.2019 12:00:00 5,0 2,0 13 7 NNW 10
14.11.2019 11:00:00 6,0 2,0 18 10 NNW 10
14.11.2019 10:00:00 5,0 2,0 18 10 NNW 10
14.11.2019 09:00:00 4,0 1,0 18 10 NNW 10
14.11.2019 08:00:00 4,0 0,0 24 13 N 10
14.11.2019 07:00:00 4,0 0,0 16 9 NNE 10
14.11.2019 06:00:00 3,0 0,0 21 11 NW 10
14.11.2019 05:00:00 2,0 0,0 4 2 - 10
14.11.2019 04:00:00 4,0 1,0 15 8 NNE 10
14.11.2019 03:00:00 4,0 1,0 18 10 N 10
14.11.2019 02:00:00 2,0 0,0 9 5 NE 5
14.11.2019 01:00:00 0,0 -1,0 4 2 - 10
14.11.2019 00:00:00 0,0 -2,0 8 4 ESE 10
13.11.2019 23:00:00 3,0 -1,0 21 11 NNE 10
13.11.2019 22:00:00 -1,0 -2,0 4 2 - 10
13.11.2019 21:00:00 2,0 -1,0 9 5 NNW 10
13.11.2019 20:00:00 3,0 0,0 11 6 N 10
13.11.2019 19:00:00 3,0 0,0 13 7 N 10
13.11.2019 18:00:00 -1,0 -3,0 4 2 - 10
13.11.2019 17:00:00 1,0 -1,0 8 4 ESE 10
13.11.2019 16:00:00 3,0 -1,0 13 7 NE 10
13.11.2019 15:00:00 3,0 0,0 0 0 N 10
13.11.2019 14:00:00 4,0 0,0 13 7 NE 10
13.11.2019 13:00:00 4,0 0,0 16 9 NE 10
13.11.2019 12:00:00 1,0 -1,0 2 1 - 10
13.11.2019 11:00:00 3,0 0,0 0 0 N 10
13.11.2019 10:00:00 0,0 -1,0 8 4 SSW 10
13.11.2019 09:00:00 0,0 -2,0 4 2 - 10
13.11.2019 08:00:00 -3,0 -4,0 2 1 - 10
13.11.2019 07:00:00 1,0 0,0 13 7 NNE 10
13.11.2019 06:00:00 -1,0 -2,0 8 4 SE 10
13.11.2019 05:00:00 0,0 -2,0 9 5 ESE 10
13.11.2019 04:00:00 -1,0 -3,0 4 2 - 10
13.11.2019 03:00:00 -1,0 -3,0 5 3 SE 10
13.11.2019 02:00:00 1,0 0,0 15 8 ENE 10
13.11.2019 01:00:00 2,0 -1,0 9 5 - 10
13.11.2019 00:00:00 0,0 -2,0 8 4 ESE 10
12.11.2019 23:00:00 0,0 -2,0 4 2 - 10
12.11.2019 22:00:00 3,0 0,0 24 13 NNE 10
12.11.2019 21:00:00 2,0 0,0 24 13 NE 10
12.11.2019 20:00:00 3,0 -2,0 16 9 NE 10
12.11.2019 19:00:00 3,0 -1,0 13 7 NE 10
12.11.2019 18:00:00 4,0 -1,0 22 12 NE 10
12.11.2019 17:00:00 3,0 -2,0 18 10 NE 10
12.11.2019 16:00:00 4,0 -2,0 26 14 NE 10
12.11.2019 15:00:00 4,0 -1,0 18 10 ENE 10
12.11.2019 14:00:00 5,0 -2,0 24 13 NE 10
12.11.2019 13:00:00 5,0 -1,0 29 16 NNE 10
12.11.2019 12:00:00 5,0 -1,0 28 15 NE 10
12.11.2019 11:00:00 5,0 0,0 31 17 NNE 10
12.11.2019 10:00:00 4,0 -1,0 26 14 NE 10
12.11.2019 09:00:00 5,0 0,0 29 16 NE 10
12.11.2019 08:00:00 5,0 -1,0 31 17 NE 10
12.11.2019 07:00:00 5,0 0,0 34 18 NE 10
12.11.2019 06:00:00 4,0 1,0 35 19 ENE 10
12.11.2019 05:00:00 4,0 -1,0 31 17 ENE 10
12.11.2019 04:00:00 3,0 0,0 35 19 ENE 10
12.11.2019 03:00:00 3,0 0,0 34 18 ENE 10
12.11.2019 02:00:00 3,0 0,0 39 21 ENE 10
12.11.2019 01:00:00 3,0 0,0 39 21 ENE 10
12.11.2019 00:00:00 3,0 0,0 39 21 ENE 10
11.11.2019 23:00:00 3,0 1,0 41 22 E 10
11.11.2019 22:00:00 4,0 2,0 39 21 E 10
11.11.2019 21:00:00 4,0 1,0 39 21 E 10

tt = Température de l'air
td = dewpoint
ff = Vitesse du vent
dd = Direction du vent
vv = visibility

stations d'obs. à proximité